Terminal Aerodrome Forecast
Issued by NWS Sterling, VA

Current Version | Previous Version | Graphics & Text | Print | Product List | Glossary On
Versions: 1 2 3 4 5 6 7 8 9 10 11 12 13 14 15
000
FTUS41 KLWX 251127
TAFMRB
TAF
KMRB 251127Z 2512/2612 00000KT 6SM -FZRA OVC040
     FM251300 16006KT 6SM -RA OVC040
     FM251600 16008KT P6SM BKN040
     FM251800 18010G18KT P6SM BKN040
     FM252300 16007KT P6SM BKN030
     FM260500 VRB03KT P6SM BKN025=

USA.gov is the U.S. government's official web portal to all federal, state and local government web resources and services.